sensor_id;sensor_type;location;lat;lon;timestamp;temperature;humidity
39021;DHT22;25188;51.958;5.842;2023-04-24T00:01:41;9.80;99.90
39021;DHT22;25188;51.958;5.842;2023-04-24T00:04:08;9.80;99.90
39021;DHT22;25188;51.958;5.842;2023-04-24T00:06:36;9.90;99.90
39021;DHT22;25188;51.958;5.842;2023-04-24T00:09:03;9.80;99.90
39021;DHT22;25188;51.958;5.842;2023-04-24T00:11:29;9.90;99.90
39021;DHT22;25188;51.958;5.842;2023-04-24T00:13:56;9.90;99.90
39021;DHT22;25188;51.958;5.842;2023-04-24T00:16:22;10.00;99.90
39021;DHT22;25188;51.958;5.842;2023-04-24T00:18:48;9.80;99.90
39021;DHT22;25188;51.958;5.842;2023-04-24T00:21:14;9.80;99.90
39021;DHT22;25188;51.958;5.842;2023-04-24T00:23:43;9.90;99.90
39021;DHT22;25188;51.958;5.842;2023-04-24T00:26:09;9.90;99.90
39021;DHT22;25188;51.958;5.842;2023-04-24T00:28:35;9.90;99.90
39021;DHT22;25188;51.958;5.842;2023-04-24T00:31:00;9.90;99.90
39021;DHT22;25188;51.958;5.842;2023-04-24T00:33:26;9.90;99.90
39021;DHT22;25188;51.958;5.842;2023-04-24T00:35:52;9.80;99.90
39021;DHT22;25188;51.958;5.842;2023-04-24T00:38:18;9.80;99.90
39021;DHT22;25188;51.958;5.842;2023-04-24T00:40:43;9.90;99.90
39021;DHT22;25188;51.958;5.842;2023-04-24T00:43:09;9.90;99.90
39021;DHT22;25188;51.958;5.842;2023-04-24T00:45:35;9.80;99.90
39021;DHT22;25188;51.958;5.842;2023-04-24T00:48:01;9.90;99.90
39021;DHT22;25188;51.958;5.842;2023-04-24T00:50:28;9.90;99.90
39021;DHT22;25188;51.958;5.842;2023-04-24T00:52:54;9.80;99.90
39021;DHT22;25188;51.958;5.842;2023-04-24T00:55:20;9.90;99.90
39021;DHT22;25188;51.958;5.842;2023-04-24T00:57:47;9.90;99.90
39021;DHT22;25188;51.958;5.842;2023-04-24T01:00:15;9.80;99.90
39021;DHT22;25188;51.958;5.842;2023-04-24T01:02:41;9.90;99.90
39021;DHT22;25188;51.958;5.842;2023-04-24T01:05:12;9.90;99.90
39021;DHT22;25188;51.958;5.842;2023-04-24T01:07:39;9.90;99.90
39021;DHT22;25188;51.958;5.842;2023-04-24T01:10:07;9.90;99.90
39021;DHT22;25188;51.958;5.842;2023-04-24T01:12:33;9.90;99.90
39021;DHT22;25188;51.958;5.842;2023-04-24T01:14:59;9.90;99.90
39021;DHT22;25188;51.958;5.842;2023-04-24T01:17:25;10.00;99.90
39021;DHT22;25188;51.958;5.842;2023-04-24T01:19:51;9.90;99.90
39021;DHT22;25188;51.958;5.842;2023-04-24T01:22:22;9.90;99.90
39021;DHT22;25188;51.958;5.842;2023-04-24T01:24:48;9.90;99.90
39021;DHT22;25188;51.958;5.842;2023-04-24T01:27:14;9.90;99.90
39021;DHT22;25188;51.958;5.842;2023-04-24T01:29:40;9.90;99.90
39021;DHT22;25188;51.958;5.842;2023-04-24T01:32:06;10.00;99.90
39021;DHT22;25188;51.958;5.842;2023-04-24T01:34:32;10.00;99.90
39021;DHT22;25188;51.958;5.842;2023-04-24T01:36:58;10.00;99.90
39021;DHT22;25188;51.958;5.842;2023-04-24T01:39:24;10.00;99.90
39021;DHT22;25188;51.958;5.842;2023-04-24T01:41:51;10.00;99.90
39021;DHT22;25188;51.958;5.842;2023-04-24T01:44:18;10.00;99.90
39021;DHT22;25188;51.958;5.842;2023-04-24T01:46:44;9.90;99.90
39021;DHT22;25188;51.958;5.842;2023-04-24T01:49:10;10.00;99.90
39021;DHT22;25188;51.958;5.842;2023-04-24T01:51:36;10.00;99.90
39021;DHT22;25188;51.958;5.842;2023-04-24T01:54:02;10.00;99.90
39021;DHT22;25188;51.958;5.842;2023-04-24T01:56:29;10.00;99.90
39021;DHT22;25188;51.958;5.842;2023-04-24T01:58:56;9.90;99.90
39021;DHT22;25188;51.958;5.842;2023-04-24T02:01:23;9.90;99.90
39021;DHT22;25188;51.958;5.842;2023-04-24T02:03:49;9.90;99.90
39021;DHT22;25188;51.958;5.842;2023-04-24T02:06:15;9.90;99.90
39021;DHT22;25188;51.958;5.842;2023-04-24T02:08:41;9.90;99.90
39021;DHT22;25188;51.958;5.842;2023-04-24T02:11:09;10.00;99.90
39021;DHT22;25188;51.958;5.842;2023-04-24T02:13:34;10.00;99.90
39021;DHT22;25188;51.958;5.842;2023-04-24T02:16:00;9.90;99.90
39021;DHT22;25188;51.958;5.842;2023-04-24T02:18:26;9.90;99.90
39021;DHT22;25188;51.958;5.842;2023-04-24T02:20:51;9.90;99.90
39021;DHT22;25188;51.958;5.842;2023-04-24T02:23:17;9.80;99.90
39021;DHT22;25188;51.958;5.842;2023-04-24T02:25:43;9.90;99.90
39021;DHT22;25188;51.958;5.842;2023-04-24T02:28:08;9.80;99.90
39021;DHT22;25188;51.958;5.842;2023-04-24T02:30:34;9.80;99.90
39021;DHT22;25188;51.958;5.842;2023-04-24T02:33:00;9.80;99.90
39021;DHT22;25188;51.958;5.842;2023-04-24T02:35:25;9.80;99.90
39021;DHT22;25188;51.958;5.842;2023-04-24T02:37:51;9.80;99.90
39021;DHT22;25188;51.958;5.842;2023-04-24T02:40:17;9.70;99.90
39021;DHT22;25188;51.958;5.842;2023-04-24T02:42:42;9.80;99.90
39021;DHT22;25188;51.958;5.842;2023-04-24T02:45:08;9.80;99.90
39021;DHT22;25188;51.958;5.842;2023-04-24T02:47:34;9.70;99.90
39021;DHT22;25188;51.958;5.842;2023-04-24T02:49:59;9.80;99.90
39021;DHT22;25188;51.958;5.842;2023-04-24T02:52:25;9.70;99.90
39021;DHT22;25188;51.958;5.842;2023-04-24T02:54:51;9.70;99.90
39021;DHT22;25188;51.958;5.842;2023-04-24T02:57:16;9.70;99.90
39021;DHT22;25188;51.958;5.842;2023-04-24T02:59:42;9.70;99.90
39021;DHT22;25188;51.958;5.842;2023-04-24T03:02:08;9.70;99.90
39021;DHT22;25188;51.958;5.842;2023-04-24T03:04:33;9.70;99.90
39021;DHT22;25188;51.958;5.842;2023-04-24T03:06:59;9.70;99.90
39021;DHT22;25188;51.958;5.842;2023-04-24T03:09:25;9.80;99.90
39021;DHT22;25188;51.958;5.842;2023-04-24T03:11:50;9.80;99.90
39021;DHT22;25188;51.958;5.842;2023-04-24T03:14:16;9.80;99.90
39021;DHT22;25188;51.958;5.842;2023-04-24T03:16:42;9.80;99.90
39021;DHT22;25188;51.958;5.842;2023-04-24T03:19:08;9.80;99.90
39021;DHT22;25188;51.958;5.842;2023-04-24T03:21:33;9.80;99.90
39021;DHT22;25188;51.958;5.842;2023-04-24T03:24:01;9.80;99.90
39021;DHT22;25188;51.958;5.842;2023-04-24T03:26:26;9.80;99.90
39021;DHT22;25188;51.958;5.842;2023-04-24T03:28:52;9.90;99.90
39021;DHT22;25188;51.958;5.842;2023-04-24T03:31:17;9.80;99.90
39021;DHT22;25188;51.958;5.842;2023-04-24T03:33:44;9.80;99.90
39021;DHT22;25188;51.958;5.842;2023-04-24T03:36:10;9.80;99.90
39021;DHT22;25188;51.958;5.842;2023-04-24T03:38:35;9.80;99.90
39021;DHT22;25188;51.958;5.842;2023-04-24T03:41:01;9.80;99.90
39021;DHT22;25188;51.958;5.842;2023-04-24T03:43:27;9.80;99.90
39021;DHT22;25188;51.958;5.842;2023-04-24T03:45:53;9.90;99.90
39021;DHT22;25188;51.958;5.842;2023-04-24T03:48:18;9.70;99.90
39021;DHT22;25188;51.958;5.842;2023-04-24T03:50:44;9.70;99.90
39021;DHT22;25188;51.958;5.842;2023-04-24T03:53:10;9.70;99.90
39021;DHT22;25188;51.958;5.842;2023-04-24T03:55:35;9.50;99.90
39021;DHT22;25188;51.958;5.842;2023-04-24T03:58:01;9.60;99.90
39021;DHT22;25188;51.958;5.842;2023-04-24T04:00:27;9.60;99.90
39021;DHT22;25188;51.958;5.842;2023-04-24T04:02:53;9.60;99.90
39021;DHT22;25188;51.958;5.842;2023-04-24T04:05:18;9.60;99.90
39021;DHT22;25188;51.958;5.842;2023-04-24T04:07:44;9.60;99.90
39021;DHT22;25188;51.958;5.842;2023-04-24T04:10:10;9.50;99.90
39021;DHT22;25188;51.958;5.842;2023-04-24T04:12:36;9.50;99.90
39021;DHT22;25188;51.958;5.842;2023-04-24T04:15:02;9.50;99.90
39021;DHT22;25188;51.958;5.842;2023-04-24T04:17:27;9.50;99.90
39021;DHT22;25188;51.958;5.842;2023-04-24T04:19:53;9.50;99.90
39021;DHT22;25188;51.958;5.842;2023-04-24T04:22:19;9.50;99.90
39021;DHT22;25188;51.958;5.842;2023-04-24T04:24:44;9.50;99.90
39021;DHT22;25188;51.958;5.842;2023-04-24T04:27:11;9.50;99.90
39021;DHT22;25188;51.958;5.842;2023-04-24T04:29:37;9.40;99.90
39021;DHT22;25188;51.958;5.842;2023-04-24T04:32:05;9.40;99.90
39021;DHT22;25188;51.958;5.842;2023-04-24T04:34:31;9.40;99.90
39021;DHT22;25188;51.958;5.842;2023-04-24T04:36:57;9.40;99.90
39021;DHT22;25188;51.958;5.842;2023-04-24T04:39:25;9.40;99.90
39021;DHT22;25188;51.958;5.842;2023-04-24T04:41:51;9.40;99.90
39021;DHT22;25188;51.958;5.842;2023-04-24T04:44:18;9.30;99.90
39021;DHT22;25188;51.958;5.842;2023-04-24T04:46:43;9.40;99.90
39021;DHT22;25188;51.958;5.842;2023-04-24T04:49:09;9.30;99.90
39021;DHT22;25188;51.958;5.842;2023-04-24T04:51:36;9.30;99.90
39021;DHT22;25188;51.958;5.842;2023-04-24T04:54:02;9.30;99.90
39021;DHT22;25188;51.958;5.842;2023-04-24T04:56:27;9.20;99.90
39021;DHT22;25188;51.958;5.842;2023-04-24T04:58:53;9.20;99.90
39021;DHT22;25188;51.958;5.842;2023-04-24T05:01:19;9.20;99.90
39021;DHT22;25188;51.958;5.842;2023-04-24T05:03:44;9.20;99.90
39021;DHT22;25188;51.958;5.842;2023-04-24T05:06:10;9.20;99.90
39021;DHT22;25188;51.958;5.842;2023-04-24T05:08:36;9.20;99.90
39021;DHT22;25188;51.958;5.842;2023-04-24T05:11:01;9.20;99.90
39021;DHT22;25188;51.958;5.842;2023-04-24T05:13:27;9.20;99.90
39021;DHT22;25188;51.958;5.842;2023-04-24T05:15:52;9.20;99.90
39021;DHT22;25188;51.958;5.842;2023-04-24T05:18:18;9.20;99.90
39021;DHT22;25188;51.958;5.842;2023-04-24T05:20:44;9.20;99.90
39021;DHT22;25188;51.958;5.842;2023-04-24T05:23:09;9.20;99.90
39021;DHT22;25188;51.958;5.842;2023-04-24T05:25:35;9.20;99.90
39021;DHT22;25188;51.958;5.842;2023-04-24T05:28:01;9.20;99.90
39021;DHT22;25188;51.958;5.842;2023-04-24T05:30:28;9.20;99.90
39021;DHT22;25188;51.958;5.842;2023-04-24T05:32:53;9.20;99.90
39021;DHT22;25188;51.958;5.842;2023-04-24T05:35:19;9.20;99.90
39021;DHT22;25188;51.958;5.842;2023-04-24T05:37:44;9.30;99.90
39021;DHT22;25188;51.958;5.842;2023-04-24T05:40:11;9.20;99.90
39021;DHT22;25188;51.958;5.842;2023-04-24T05:42:37;9.20;99.90
39021;DHT22;25188;51.958;5.842;2023-04-24T05:45:03;9.20;99.90
39021;DHT22;25188;51.958;5.842;2023-04-24T05:47:29;9.20;99.90
39021;DHT22;25188;51.958;5.842;2023-04-24T05:49:55;9.30;99.90
39021;DHT22;25188;51.958;5.842;2023-04-24T05:52:20;9.30;99.90
39021;DHT22;25188;51.958;5.842;2023-04-24T05:54:46;9.30;99.90
39021;DHT22;25188;51.958;5.842;2023-04-24T05:57:12;9.30;99.90
39021;DHT22;25188;51.958;5.842;2023-04-24T05:59:37;9.40;99.90
39021;DHT22;25188;51.958;5.842;2023-04-24T06:02:07;9.40;99.90
39021;DHT22;25188;51.958;5.842;2023-04-24T06:04:33;9.40;99.90
39021;DHT22;25188;51.958;5.842;2023-04-24T06:06:59;9.40;99.90
39021;DHT22;25188;51.958;5.842;2023-04-24T06:09:25;9.40;99.90
39021;DHT22;25188;51.958;5.842;2023-04-24T06:11:51;9.40;99.90
39021;DHT22;25188;51.958;5.842;2023-04-24T06:14:19;9.50;99.90
39021;DHT22;25188;51.958;5.842;2023-04-24T06:16:45;9.50;99.90
39021;DHT22;25188;51.958;5.842;2023-04-24T06:19:11;9.60;99.90
39021;DHT22;25188;51.958;5.842;2023-04-24T06:21:36;9.60;99.90
39021;DHT22;25188;51.958;5.842;2023-04-24T06:24:03;9.70;99.90
39021;DHT22;25188;51.958;5.842;2023-04-24T06:26:29;9.70;99.90
39021;DHT22;25188;51.958;5.842;2023-04-24T06:28:55;9.70;99.90
39021;DHT22;25188;51.958;5.842;2023-04-24T06:31:21;9.70;99.90
39021;DHT22;25188;51.958;5.842;2023-04-24T06:33:48;9.80;99.90
39021;DHT22;25188;51.958;5.842;2023-04-24T06:36:14;9.80;99.90
39021;DHT22;25188;51.958;5.842;2023-04-24T06:38:39;9.80;99.90
39021;DHT22;25188;51.958;5.842;2023-04-24T06:41:05;9.80;99.90
39021;DHT22;25188;51.958;5.842;2023-04-24T06:43:31;9.80;99.90
39021;DHT22;25188;51.958;5.842;2023-04-24T06:45:58;9.70;99.90
39021;DHT22;25188;51.958;5.842;2023-04-24T06:48:24;9.70;99.90
39021;DHT22;25188;51.958;5.842;2023-04-24T06:50:51;9.80;99.90
39021;DHT22;25188;51.958;5.842;2023-04-24T06:53:17;9.80;99.90
39021;DHT22;25188;51.958;5.842;2023-04-24T06:55:42;9.90;99.90
39021;DHT22;25188;51.958;5.842;2023-04-24T06:58:11;9.90;99.90
39021;DHT22;25188;51.958;5.842;2023-04-24T07:00:37;9.90;99.90
39021;DHT22;25188;51.958;5.842;2023-04-24T07:03:03;9.90;99.90
39021;DHT22;25188;51.958;5.842;2023-04-24T07:05:31;9.90;99.90
39021;DHT22;25188;51.958;5.842;2023-04-24T07:07:56;9.90;99.90
39021;DHT22;25188;51.958;5.842;2023-04-24T07:10:24;9.90;99.90
39021;DHT22;25188;51.958;5.842;2023-04-24T07:12:49;9.80;99.90
39021;DHT22;25188;51.958;5.842;2023-04-24T07:15:15;9.80;99.90
39021;DHT22;25188;51.958;5.842;2023-04-24T07:17:41;9.70;99.90
39021;DHT22;25188;51.958;5.842;2023-04-24T07:20:10;9.70;99.90
39021;DHT22;25188;51.958;5.842;2023-04-24T07:22:38;9.60;99.90
39021;DHT22;25188;51.958;5.842;2023-04-24T07:25:04;9.60;99.90
39021;DHT22;25188;51.958;5.842;2023-04-24T07:27:30;9.60;99.90
39021;DHT22;25188;51.958;5.842;2023-04-24T07:29:56;9.60;99.90
39021;DHT22;25188;51.958;5.842;2023-04-24T07:32:22;9.50;99.90
39021;DHT22;25188;51.958;5.842;2023-04-24T07:34:48;9.50;99.90
39021;DHT22;25188;51.958;5.842;2023-04-24T07:37:13;9.50;99.90
39021;DHT22;25188;51.958;5.842;2023-04-24T07:39:40;9.40;99.90
39021;DHT22;25188;51.958;5.842;2023-04-24T07:42:06;9.40;99.90
39021;DHT22;25188;51.958;5.842;2023-04-24T07:44:32;9.30;99.90
39021;DHT22;25188;51.958;5.842;2023-04-24T07:46:57;9.30;99.90
39021;DHT22;25188;51.958;5.842;2023-04-24T07:49:23;9.30;99.90
39021;DHT22;25188;51.958;5.842;2023-04-24T07:51:49;9.20;99.90
39021;DHT22;25188;51.958;5.842;2023-04-24T07:54:15;9.30;99.90
39021;DHT22;25188;51.958;5.842;2023-04-24T07:56:41;9.30;99.90
39021;DHT22;25188;51.958;5.842;2023-04-24T07:59:08;9.20;99.90
39021;DHT22;25188;51.958;5.842;2023-04-24T08:01:37;9.20;99.90
39021;DHT22;25188;51.958;5.842;2023-04-24T08:04:03;9.20;99.90
39021;DHT22;25188;51.958;5.842;2023-04-24T08:06:29;9.20;99.90
39021;DHT22;25188;51.958;5.842;2023-04-24T08:08:59;9.10;99.90
39021;DHT22;25188;51.958;5.842;2023-04-24T08:11:26;9.10;99.90
39021;DHT22;25188;51.958;5.842;2023-04-24T08:13:52;9.10;99.90
39021;DHT22;25188;51.958;5.842;2023-04-24T08:16:17;9.00;99.90
39021;DHT22;25188;51.958;5.842;2023-04-24T08:18:43;9.10;99.90
39021;DHT22;25188;51.958;5.842;2023-04-24T08:21:08;8.90;99.90
39021;DHT22;25188;51.958;5.842;2023-04-24T08:23:34;8.90;99.90
39021;DHT22;25188;51.958;5.842;2023-04-24T08:26:00;8.80;99.90
39021;DHT22;25188;51.958;5.842;2023-04-24T08:28:25;8.80;99.90
39021;DHT22;25188;51.958;5.842;2023-04-24T08:30:51;8.80;99.90
39021;DHT22;25188;51.958;5.842;2023-04-24T08:33:23;8.80;99.90
39021;DHT22;25188;51.958;5.842;2023-04-24T08:35:49;8.70;99.90
39021;DHT22;25188;51.958;5.842;2023-04-24T08:38:15;8.70;99.90
39021;DHT22;25188;51.958;5.842;2023-04-24T08:40:41;8.70;99.90
39021;DHT22;25188;51.958;5.842;2023-04-24T08:43:07;8.70;99.90
39021;DHT22;25188;51.958;5.842;2023-04-24T08:45:34;8.70;99.90
39021;DHT22;25188;51.958;5.842;2023-04-24T08:48:00;8.80;99.90
39021;DHT22;25188;51.958;5.842;2023-04-24T08:50:25;8.80;99.90
39021;DHT22;25188;51.958;5.842;2023-04-24T08:52:52;8.80;99.90
39021;DHT22;25188;51.958;5.842;2023-04-24T08:55:23;8.80;99.90
39021;DHT22;25188;51.958;5.842;2023-04-24T08:57:51;8.80;99.90
39021;DHT22;25188;51.958;5.842;2023-04-24T09:00:21;8.80;99.90
39021;DHT22;25188;51.958;5.842;2023-04-24T09:02:49;8.90;99.90
39021;DHT22;25188;51.958;5.842;2023-04-24T09:05:17;8.80;99.90
39021;DHT22;25188;51.958;5.842;2023-04-24T09:07:45;8.80;99.90
39021;DHT22;25188;51.958;5.842;2023-04-24T09:10:15;8.80;99.90
39021;DHT22;25188;51.958;5.842;2023-04-24T09:12:42;8.70;99.90
39021;DHT22;25188;51.958;5.842;2023-04-24T09:15:09;8.70;99.90
39021;DHT22;25188;51.958;5.842;2023-04-24T09:17:36;8.70;99.90
39021;DHT22;25188;51.958;5.842;2023-04-24T09:20:02;8.60;99.90
39021;DHT22;25188;51.958;5.842;2023-04-24T09:22:30;8.70;99.90
39021;DHT22;25188;51.958;5.842;2023-04-24T09:25:04;8.70;99.90
39021;DHT22;25188;51.958;5.842;2023-04-24T09:27:35;8.80;99.90
39021;DHT22;25188;51.958;5.842;2023-04-24T09:30:02;8.80;99.90
39021;DHT22;25188;51.958;5.842;2023-04-24T09:32:28;8.90;99.90
39021;DHT22;25188;51.958;5.842;2023-04-24T09:35:14;8.90;99.90
39021;DHT22;25188;51.958;5.842;2023-04-24T09:37:45;9.00;99.90
39021;DHT22;25188;51.958;5.842;2023-04-24T09:40:23;9.00;99.90
39021;DHT22;25188;51.958;5.842;2023-04-24T09:42:53;9.10;99.90
39021;DHT22;25188;51.958;5.842;2023-04-24T09:45:19;9.10;99.90
39021;DHT22;25188;51.958;5.842;2023-04-24T09:47:45;9.20;99.90
39021;DHT22;25188;51.958;5.842;2023-04-24T09:50:16;9.20;99.90
39021;DHT22;25188;51.958;5.842;2023-04-24T09:55:27;9.30;99.90
39021;DHT22;25188;51.958;5.842;2023-04-24T09:58:12;9.30;99.90
39021;DHT22;25188;51.958;5.842;2023-04-24T10:00:37;9.30;99.90
39021;DHT22;25188;51.958;5.842;2023-04-24T10:03:04;9.20;99.90
39021;DHT22;25188;51.958;5.842;2023-04-24T10:05:32;9.10;99.90
39021;DHT22;25188;51.958;5.842;2023-04-24T10:10:26;9.30;99.90
39021;DHT22;25188;51.958;5.842;2023-04-24T10:12:53;9.30;99.90
39021;DHT22;25188;51.958;5.842;2023-04-24T10:15:20;9.40;99.90
39021;DHT22;25188;51.958;5.842;2023-04-24T10:17:50;9.50;99.90
39021;DHT22;25188;51.958;5.842;2023-04-24T10:20:24;9.60;99.90
39021;DHT22;25188;51.958;5.842;2023-04-24T10:22:51;9.80;99.90
39021;DHT22;25188;51.958;5.842;2023-04-24T10:25:22;10.00;99.90
39021;DHT22;25188;51.958;5.842;2023-04-24T10:27:48;10.20;99.90
39021;DHT22;25188;51.958;5.842;2023-04-24T10:30:15;10.40;99.90
39021;DHT22;25188;51.958;5.842;2023-04-24T10:32:41;10.60;99.90
39021;DHT22;25188;51.958;5.842;2023-04-24T10:35:08;10.80;99.90
39021;DHT22;25188;51.958;5.842;2023-04-24T10:37:37;11.10;99.90
39021;DHT22;25188;51.958;5.842;2023-04-24T10:40:06;11.30;99.90
39021;DHT22;25188;51.958;5.842;2023-04-24T10:42:33;11.30;99.90
39021;DHT22;25188;51.958;5.842;2023-04-24T10:44:58;11.20;98.90
39021;DHT22;25188;51.958;5.842;2023-04-24T10:47:27;11.00;97.60
39021;DHT22;25188;51.958;5.842;2023-04-24T10:49:53;10.90;97.60
39021;DHT22;25188;51.958;5.842;2023-04-24T10:52:19;10.80;97.40
39021;DHT22;25188;51.958;5.842;2023-04-24T10:54:47;10.80;97.70
39021;DHT22;25188;51.958;5.842;2023-04-24T10:59:52;10.80;96.00
39021;DHT22;25188;51.958;5.842;2023-04-24T11:02:38;10.90;97.00
39021;DHT22;25188;51.958;5.842;2023-04-24T11:05:04;10.80;95.90
39021;DHT22;25188;51.958;5.842;2023-04-24T11:10:37;10.40;95.60
39021;DHT22;25188;51.958;5.842;2023-04-24T11:13:03;10.30;96.00
39021;DHT22;25188;51.958;5.842;2023-04-24T11:15:29;10.20;96.80
39021;DHT22;25188;51.958;5.842;2023-04-24T11:17:55;10.20;97.60
39021;DHT22;25188;51.958;5.842;2023-04-24T11:20:23;10.30;97.30
39021;DHT22;25188;51.958;5.842;2023-04-24T11:22:53;10.30;97.00
39021;DHT22;25188;51.958;5.842;2023-04-24T11:25:21;10.40;97.20
39021;DHT22;25188;51.958;5.842;2023-04-24T11:27:47;10.40;96.70
39021;DHT22;25188;51.958;5.842;2023-04-24T11:30:20;10.50;97.10
39021;DHT22;25188;51.958;5.842;2023-04-24T11:32:50;10.50;96.50
39021;DHT22;25188;51.958;5.842;2023-04-24T11:35:20;10.60;96.10
39021;DHT22;25188;51.958;5.842;2023-04-24T11:37:54;10.50;96.00
39021;DHT22;25188;51.958;5.842;2023-04-24T11:40:21;10.50;96.20
39021;DHT22;25188;51.958;5.842;2023-04-24T11:42:52;10.70;96.80
39021;DHT22;25188;51.958;5.842;2023-04-24T11:45:23;10.90;97.20
39021;DHT22;25188;51.958;5.842;2023-04-24T11:47:50;11.40;97.30
39021;DHT22;25188;51.958;5.842;2023-04-24T11:50:18;11.70;96.10
39021;DHT22;25188;51.958;5.842;2023-04-24T11:52:45;11.70;95.00
39021;DHT22;25188;51.958;5.842;2023-04-24T11:57:43;11.70;93.90
39021;DHT22;25188;51.958;5.842;2023-04-24T12:00:18;11.50;92.90
39021;DHT22;25188;51.958;5.842;2023-04-24T12:02:44;11.40;92.60
39021;DHT22;25188;51.958;5.842;2023-04-24T12:05:22;11.20;93.10
39021;DHT22;25188;51.958;5.842;2023-04-24T12:07:48;11.10;93.90
39021;DHT22;25188;51.958;5.842;2023-04-24T12:10:19;11.10;94.80
39021;DHT22;25188;51.958;5.842;2023-04-24T12:12:45;11.00;95.20
39021;DHT22;25188;51.958;5.842;2023-04-24T12:15:12;10.90;95.20
39021;DHT22;25188;51.958;5.842;2023-04-24T12:17:41;10.80;95.50
39021;DHT22;25188;51.958;5.842;2023-04-24T12:20:08;10.70;96.40
39021;DHT22;25188;51.958;5.842;2023-04-24T12:22:44;10.60;96.70
39021;DHT22;25188;51.958;5.842;2023-04-24T12:25:17;10.50;97.10
39021;DHT22;25188;51.958;5.842;2023-04-24T12:27:44;10.40;97.30
39021;DHT22;25188;51.958;5.842;2023-04-24T12:30:15;10.40;97.40
39021;DHT22;25188;51.958;5.842;2023-04-24T12:32:49;10.50;97.50
39021;DHT22;25188;51.958;5.842;2023-04-24T12:35:23;10.60;97.10
39021;DHT22;25188;51.958;5.842;2023-04-24T12:37:49;10.80;96.80
39021;DHT22;25188;51.958;5.842;2023-04-24T12:40:15;10.80;96.40
39021;DHT22;25188;51.958;5.842;2023-04-24T12:42:49;10.90;96.40
39021;DHT22;25188;51.958;5.842;2023-04-24T12:45:16;10.90;96.20
39021;DHT22;25188;51.958;5.842;2023-04-24T12:47:44;10.90;95.50
39021;DHT22;25188;51.958;5.842;2023-04-24T12:50:14;10.90;95.30
39021;DHT22;25188;51.958;5.842;2023-04-24T12:52:41;10.80;95.10
39021;DHT22;25188;51.958;5.842;2023-04-24T12:55:08;10.80;94.80
39021;DHT22;25188;51.958;5.842;2023-04-24T12:57:35;10.80;95.10
39021;DHT22;25188;51.958;5.842;2023-04-24T13:00:03;10.90;94.80
39021;DHT22;25188;51.958;5.842;2023-04-24T13:02:30;10.90;94.50
39021;DHT22;25188;51.958;5.842;2023-04-24T13:04:59;10.90;94.40
39021;DHT22;25188;51.958;5.842;2023-04-24T13:07:25;10.90;95.00
39021;DHT22;25188;51.958;5.842;2023-04-24T13:09:51;10.90;94.80
39021;DHT22;25188;51.958;5.842;2023-04-24T13:12:18;10.90;94.60
39021;DHT22;25188;51.958;5.842;2023-04-24T13:14:44;10.90;94.40
39021;DHT22;25188;51.958;5.842;2023-04-24T13:17:11;11.00;94.70
39021;DHT22;25188;51.958;5.842;2023-04-24T13:19:39;11.00;94.20
39021;DHT22;25188;51.958;5.842;2023-04-24T13:22:06;11.00;94.10
39021;DHT22;25188;51.958;5.842;2023-04-24T13:24:32;11.10;93.80
39021;DHT22;25188;51.958;5.842;2023-04-24T13:26:58;11.20;93.10
39021;DHT22;25188;51.958;5.842;2023-04-24T13:29:25;11.20;93.50
39021;DHT22;25188;51.958;5.842;2023-04-24T13:31:51;11.20;93.30
39021;DHT22;25188;51.958;5.842;2023-04-24T13:34:19;11.20;91.90
39021;DHT22;25188;51.958;5.842;2023-04-24T13:36:45;11.10;91.60
39021;DHT22;25188;51.958;5.842;2023-04-24T13:39:11;11.10;91.50
39021;DHT22;25188;51.958;5.842;2023-04-24T13:41:37;11.10;91.70
39021;DHT22;25188;51.958;5.842;2023-04-24T13:44:04;11.20;91.60
39021;DHT22;25188;51.958;5.842;2023-04-24T13:46:30;11.30;91.70
39021;DHT22;25188;51.958;5.842;2023-04-24T13:48:56;11.60;91.20
39021;DHT22;25188;51.958;5.842;2023-04-24T13:51:22;11.90;90.80
39021;DHT22;25188;51.958;5.842;2023-04-24T13:53:48;12.10;90.80
39021;DHT22;25188;51.958;5.842;2023-04-24T13:56:14;12.30;88.10
39021;DHT22;25188;51.958;5.842;2023-04-24T13:58:40;12.30;87.60
39021;DHT22;25188;51.958;5.842;2023-04-24T14:01:05;12.40;87.10
39021;DHT22;25188;51.958;5.842;2023-04-24T14:03:32;12.60;86.50
39021;DHT22;25188;51.958;5.842;2023-04-24T14:05:58;12.70;83.20
39021;DHT22;25188;51.958;5.842;2023-04-24T14:08:24;13.10;84.10
39021;DHT22;25188;51.958;5.842;2023-04-24T14:10:50;13.70;82.80
39021;DHT22;25188;51.958;5.842;2023-04-24T14:13:16;14.00;80.30
39021;DHT22;25188;51.958;5.842;2023-04-24T14:15:42;13.90;76.10
39021;DHT22;25188;51.958;5.842;2023-04-24T14:18:08;13.70;74.70
39021;DHT22;25188;51.958;5.842;2023-04-24T14:20:33;13.40;75.80
39021;DHT22;25188;51.958;5.842;2023-04-24T14:22:59;13.20;75.50
39021;DHT22;25188;51.958;5.842;2023-04-24T14:25:25;13.10;76.80
39021;DHT22;25188;51.958;5.842;2023-04-24T14:27:51;13.10;75.10
39021;DHT22;25188;51.958;5.842;2023-04-24T14:30:17;13.00;76.10
39021;DHT22;25188;51.958;5.842;2023-04-24T14:32:43;13.40;76.60
39021;DHT22;25188;51.958;5.842;2023-04-24T14:35:08;13.90;76.80
39021;DHT22;25188;51.958;5.842;2023-04-24T14:37:34;14.20;73.20
39021;DHT22;25188;51.958;5.842;2023-04-24T14:40:01;14.40;72.00
39021;DHT22;25188;51.958;5.842;2023-04-24T14:42:27;14.70;71.50
39021;DHT22;25188;51.958;5.842;2023-04-24T14:44:54;15.20;69.60
39021;DHT22;25188;51.958;5.842;2023-04-24T14:47:20;15.60;66.80
39021;DHT22;25188;51.958;5.842;2023-04-24T14:49:47;15.60;66.50
39021;DHT22;25188;51.958;5.842;2023-04-24T14:52:13;15.50;65.60
39021;DHT22;25188;51.958;5.842;2023-04-24T14:54:39;15.30;65.40
39021;DHT22;25188;51.958;5.842;2023-04-24T14:57:04;15.10;65.50
39021;DHT22;25188;51.958;5.842;2023-04-24T14:59:30;14.80;64.90
39021;DHT22;25188;51.958;5.842;2023-04-24T15:01:57;14.40;63.60
39021;DHT22;25188;51.958;5.842;2023-04-24T15:04:27;14.00;64.30
39021;DHT22;25188;51.958;5.842;2023-04-24T15:06:53;13.80;65.80
39021;DHT22;25188;51.958;5.842;2023-04-24T15:09:20;13.60;66.30
39021;DHT22;25188;51.958;5.842;2023-04-24T15:11:47;13.40;67.80
39021;DHT22;25188;51.958;5.842;2023-04-24T15:14:14;13.20;68.40
39021;DHT22;25188;51.958;5.842;2023-04-24T15:16:40;13.10;69.10
39021;DHT22;25188;51.958;5.842;2023-04-24T15:19:05;13.20;69.00
39021;DHT22;25188;51.958;5.842;2023-04-24T15:21:31;13.20;69.50
39021;DHT22;25188;51.958;5.842;2023-04-24T15:23:57;13.10;69.80
39021;DHT22;25188;51.958;5.842;2023-04-24T15:26:23;13.10;70.30
39021;DHT22;25188;51.958;5.842;2023-04-24T15:28:49;13.00;71.20
39021;DHT22;25188;51.958;5.842;2023-04-24T15:31:17;12.90;71.60
39021;DHT22;25188;51.958;5.842;2023-04-24T15:33:43;12.80;71.90
39021;DHT22;25188;51.958;5.842;2023-04-24T15:36:09;12.60;71.80
39021;DHT22;25188;51.958;5.842;2023-04-24T15:38:35;12.50;72.00
39021;DHT22;25188;51.958;5.842;2023-04-24T15:41:00;12.60;72.30
39021;DHT22;25188;51.958;5.842;2023-04-24T15:43:26;12.50;72.00
39021;DHT22;25188;51.958;5.842;2023-04-24T15:45:54;12.40;71.90
39021;DHT22;25188;51.958;5.842;2023-04-24T15:48:20;12.30;72.50
39021;DHT22;25188;51.958;5.842;2023-04-24T15:50:46;12.30;73.90